White River (Arkansas), Norfork (07057370)

StateArkansasCurrentGood (16900 cfs)
RiverWhite RiverFlood - The river is flooding. Obstacles can be treacherous or deadly. The river should be avoided at this stage for casual trips and definitely for the inexperienced. Trips should be attempted only with protective gear and equipment.Flood(none)
Updated2019-10-13 19:30 (1 hour ago)High - The river is high and potentially dangerous, especially for the young and / or inexperienced. Normal stream obstacles are sometimes difficult to navigate. Extended distances can be attempted, but canoe travel may not be advisable.High(none)
Discharge16900 cfs (median: 4210 cfs)Good - Conditions are ideal for a canoe or kayak. Boats typically will drag on fewer than one-quarter of riffles, if at all, and portages are unnecessary or rare. Normal float lengths can be attempted without a problem.Good2000
Height9.63 feetLow - River is low but can still be floated. Some riffles are okay but most come with significant dragging and might need a portage. Float lengths should be reduced to accommodate low flow, dragging, and portages.Low(none)
TrendSteady (falling over 24 hours)Poor - River is too low to float comfortably. Most or all riffles will drag or must be portaged and some obstacles (such as slick shelf rock) cause undue problems. Avoid the river at this stage for casual paddling trips.Poor(none)
USGSExternal icon USGS Site for Norfork (07057370)LocationExternal icon Google Maps

Trending Data

Plot Image
ObservationHeightDischargeMaximum
Discharge
Minimum
Discharge
Mean
Discharge
P05P10P20P25P50
(Median)
P75P80P90P95
2019-10-13 19:30 9.63 16900 18700 (2016) 768 (2004) 5940 1160 1610 2260 4210 6530 10900 18000
2019-10-13 18:30 9.65 16900 18700 (2016) 768 (2004) 5940 1160 1610 2260 4210 6530 10900 18000
2019-10-13 17:30 9.64 16900 18700 (2016) 768 (2004) 5940 1160 1610 2260 4210 6530 10900 18000
2019-10-13 16:30 9.60 16800 18700 (2016) 768 (2004) 5940 1160 1610 2260 4210 6530 10900 18000
2019-10-13 15:30 9.57 16600 18700 (2016) 768 (2004) 5940 1160 1610 2260 4210 6530 10900 18000
2019-10-13 14:30 9.55 16600 18700 (2016) 768 (2004) 5940 1160 1610 2260 4210 6530 10900 18000
2019-10-13 13:30 9.47 16300 18700 (2016) 768 (2004) 5940 1160 1610 2260 4210 6530 10900 18000
2019-10-13 12:30 9.47 16300 18700 (2016) 768 (2004) 5940 1160 1610 2260 4210 6530 10900 18000
2019-10-13 11:30 9.44 16200 18700 (2016) 768 (2004) 5940 1160 1610 2260 4210 6530 10900 18000
2019-10-13 10:30 9.46 16200 18700 (2016) 768 (2004) 5940 1160 1610 2260 4210 6530 10900 18000
2019-10-13 09:30 9.53 16500 18700 (2016) 768 (2004) 5940 1160 1610 2260 4210 6530 10900 18000
2019-10-13 08:30 9.62 16800 18700 (2016) 768 (2004) 5940 1160 1610 2260 4210 6530 10900 18000
2019-10-13 07:30 9.71 17200 18700 (2016) 768 (2004) 5940 1160 1610 2260 4210 6530 10900 18000
2019-10-13 06:30 9.80 17500 18700 (2016) 768 (2004) 5940 1160 1610 2260 4210 6530 10900 18000
2019-10-13 05:30 9.89 17900 18700 (2016) 768 (2004) 5940 1160 1610 2260 4210 6530 10900 18000
2019-10-13 04:30 9.96 18100 18700 (2016) 768 (2004) 5940 1160 1610 2260 4210 6530 10900 18000
2019-10-13 03:30 10.07 18500 18700 (2016) 768 (2004) 5940 1160 1610 2260 4210 6530 10900 18000
2019-10-13 02:30 10.16 18900 18700 (2016) 768 (2004) 5940 1160 1610 2260 4210 6530 10900 18000
2019-10-13 01:30 10.26 19300 18700 (2016) 768 (2004) 5940 1160 1610 2260 4210 6530 10900 18000
2019-10-13 00:30 10.36 19700 18700 (2016) 768 (2004) 5940 1160 1610 2260 4210 6530 10900 18000
2019-10-12 23:30 10.47 20100 19800 (2016) 731 (2006) 5900 916 1610 2350 3870 5640 10100 18700
2019-10-12 22:30 10.53 20300 19800 (2016) 731 (2006) 5900 916 1610 2350 3870 5640 10100 18700
2019-10-12 21:30 10.63 20700 19800 (2016) 731 (2006) 5900 916 1610 2350 3870 5640 10100 18700
2019-10-12 20:30 10.70 21000 19800 (2016) 731 (2006) 5900 916 1610 2350 3870 5640 10100 18700
2019-10-12 19:30 10.78 21300 19800 (2016) 731 (2006) 5900 916 1610 2350 3870 5640 10100 18700
2019-10-12 18:30 10.82 21500 19800 (2016) 731 (2006) 5900 916 1610 2350 3870 5640 10100 18700
2019-10-12 17:30 10.86 21700 19800 (2016) 731 (2006) 5900 916 1610 2350 3870 5640 10100 18700
2019-10-12 16:30 10.86 21700 19800 (2016) 731 (2006) 5900 916 1610 2350 3870 5640 10100 18700
2019-10-12 15:30 10.86 21700 19800 (2016) 731 (2006) 5900 916 1610 2350 3870 5640 10100 18700
2019-10-12 14:30 10.85 21600 19800 (2016) 731 (2006) 5900 916 1610 2350 3870 5640 10100 18700
2019-10-12 13:30 10.86 21700 19800 (2016) 731 (2006) 5900 916 1610 2350 3870 5640 10100 18700
2019-10-12 12:30 10.81 21500 19800 (2016) 731 (2006) 5900 916 1610 2350 3870 5640 10100 18700
2019-10-12 11:30 10.73 21100 19800 (2016) 731 (2006) 5900 916 1610 2350 3870 5640 10100 18700
2019-10-12 10:30 10.51 20300 19800 (2016) 731 (2006) 5900 916 1610 2350 3870 5640 10100 18700
2019-10-12 09:30 10.23 19200 19800 (2016) 731 (2006) 5900 916 1610 2350 3870 5640 10100 18700
2019-10-12 08:30 9.86 17700 19800 (2016) 731 (2006) 5900 916 1610 2350 3870 5640 10100 18700
2019-10-12 07:30 9.61 16800 19800 (2016) 731 (2006) 5900 916 1610 2350 3870 5640 10100 18700
2019-10-12 06:30 9.59 16700 19800 (2016) 731 (2006) 5900 916 1610 2350 3870 5640 10100 18700
2019-10-12 05:30 9.62 16800 19800 (2016) 731 (2006) 5900 916 1610 2350 3870 5640 10100 18700
2019-10-12 04:30 9.61 16800 19800 (2016) 731 (2006) 5900 916 1610 2350 3870 5640 10100 18700
2019-10-12 03:30 9.61 16800 19800 (2016) 731 (2006) 5900 916 1610 2350 3870 5640 10100 18700
2019-10-12 02:30 9.62 16800 19800 (2016) 731 (2006) 5900 916 1610 2350 3870 5640 10100 18700
2019-10-12 01:30 9.59 16700 19800 (2016) 731 (2006) 5900 916 1610 2350 3870 5640 10100 18700
2019-10-12 00:30 9.50 16400 19800 (2016) 731 (2006) 5900 916 1610 2350 3870 5640 10100 18700
2019-10-11 23:30 9.44 16200 19800 (2016) 800 (2004) 6280 1330 2280 2580 3580 6100 12700 18600
2019-10-11 22:30 9.34 15800 19800 (2016) 800 (2004) 6280 1330 2280 2580 3580 6100 12700 18600
2019-10-11 21:30 9.25 15500 19800 (2016) 800 (2004) 6280 1330 2280 2580 3580 6100 12700 18600
2019-10-11 20:30 9.16 15100 19800 (2016) 800 (2004) 6280 1330 2280 2580 3580 6100 12700 18600
2019-10-11 19:30 9.05 14700 19800 (2016) 800 (2004) 6280 1330 2280 2580 3580 6100 12700 18600
2019-10-11 18:30 8.98 14500 19800 (2016) 800 (2004) 6280 1330 2280 2580 3580 6100 12700 18600
2019-10-11 17:30 8.95 14400 19800 (2016) 800 (2004) 6280 1330 2280 2580 3580 6100 12700 18600
2019-10-11 16:30 8.81 13900 19800 (2016) 800 (2004) 6280 1330 2280 2580 3580 6100 12700 18600
2019-10-11 15:30 8.77 13700 19800 (2016) 800 (2004) 6280 1330 2280 2580 3580 6100 12700 18600
2019-10-11 14:30 8.72 13500 19800 (2016) 800 (2004) 6280 1330 2280 2580 3580 6100 12700 18600
2019-10-11 13:30 8.72 13500 19800 (2016) 800 (2004) 6280 1330 2280 2580 3580 6100 12700 18600
2019-10-11 12:30 8.71 13500 19800 (2016) 800 (2004) 6280 1330 2280 2580 3580 6100 12700 18600
2019-10-11 11:30 8.80 13800 19800 (2016) 800 (2004) 6280 1330 2280 2580 3580 6100 12700 18600
2019-10-11 10:30 8.87 14100 19800 (2016) 800 (2004) 6280 1330 2280 2580 3580 6100 12700 18600
2019-10-11 09:30 8.93 14300 19800 (2016) 800 (2004) 6280 1330 2280 2580 3580 6100 12700 18600
2019-10-11 08:30 8.97 14400 19800 (2016) 800 (2004) 6280 1330 2280 2580 3580 6100 12700 18600
2019-10-11 07:30 9.04 14700 19800 (2016) 800 (2004) 6280 1330 2280 2580 3580 6100 12700 18600
2019-10-11 06:30 9.04 14700 19800 (2016) 800 (2004) 6280 1330 2280 2580 3580 6100 12700 18600
2019-10-11 05:30 9.04 14700 19800 (2016) 800 (2004) 6280 1330 2280 2580 3580 6100 12700 18600
2019-10-11 04:30 9.04 14700 19800 (2016) 800 (2004) 6280 1330 2280 2580 3580 6100 12700 18600
2019-10-11 03:30 9.06 14800 19800 (2016) 800 (2004) 6280 1330 2280 2580 3580 6100 12700 18600
2019-10-11 02:30 9.05 14700 19800 (2016) 800 (2004) 6280 1330 2280 2580 3580 6100 12700 18600
2019-10-11 01:30 9.04 14700 19800 (2016) 800 (2004) 6280 1330 2280 2580 3580 6100 12700 18600
2019-10-11 00:30 9.06 14800 19800 (2016) 800 (2004) 6280 1330 2280 2580 3580 6100 12700 18600
2019-10-10 23:30 9.06 14800 22200 (2010) 629 (2006) 6680 1380 2560 2690 4180 5510 15300 20700
2019-10-10 22:30 9.07 14800 22200 (2010) 629 (2006) 6680 1380 2560 2690 4180 5510 15300 20700
2019-10-10 21:30 9.10 14900 22200 (2010) 629 (2006) 6680 1380 2560 2690 4180 5510 15300 20700
2019-10-10 20:30 9.12 15000 22200 (2010) 629 (2006) 6680 1380 2560 2690 4180 5510 15300 20700
2019-10-10 19:30 9.14 15100 22200 (2010) 629 (2006) 6680 1380 2560 2690 4180 5510 15300 20700
2019-10-10 18:30 9.24 15400 22200 (2010) 629 (2006) 6680 1380 2560 2690 4180 5510 15300 20700
2019-10-10 17:30 9.39 16000 22200 (2010) 629 (2006) 6680 1380 2560 2690 4180 5510 15300 20700
2019-10-10 16:30 9.47 16300 22200 (2010) 629 (2006) 6680 1380 2560 2690 4180 5510 15300 20700
2019-10-10 15:30 9.50 16400 22200 (2010) 629 (2006) 6680 1380 2560 2690 4180 5510 15300 20700
2019-10-10 14:30 9.56 16600 22200 (2010) 629 (2006) 6680 1380 2560 2690 4180 5510 15300 20700
2019-10-10 13:30 9.56 16600 22200 (2010) 629 (2006) 6680 1380 2560 2690 4180 5510 15300 20700
2019-10-10 12:30 9.55 16600 22200 (2010) 629 (2006) 6680 1380 2560 2690 4180 5510 15300 20700
2019-10-10 11:30 9.48 16300 22200 (2010) 629 (2006) 6680 1380 2560 2690 4180 5510 15300 20700
2019-10-10 10:30 9.42 16100 22200 (2010) 629 (2006) 6680 1380 2560 2690 4180 5510 15300 20700
2019-10-10 09:30 9.44 16200 22200 (2010) 629 (2006) 6680 1380 2560 2690 4180 5510 15300 20700
2019-10-10 08:30 9.45 16200 22200 (2010) 629 (2006) 6680 1380 2560 2690 4180 5510 15300 20700
2019-10-10 07:30 9.46 16200 22200 (2010) 629 (2006) 6680 1380 2560 2690 4180 5510 15300 20700
2019-10-10 06:30 9.47 16300 22200 (2010) 629 (2006) 6680 1380 2560 2690 4180 5510 15300 20700
2019-10-10 05:30 9.49 16300 22200 (2010) 629 (2006) 6680 1380 2560 2690 4180 5510 15300 20700
2019-10-10 04:30 9.50 16400 22200 (2010) 629 (2006) 6680 1380 2560 2690 4180 5510 15300 20700
2019-10-10 03:30 9.48 16300 22200 (2010) 629 (2006) 6680 1380 2560 2690 4180 5510 15300 20700
2019-10-10 02:30 9.49 16300 22200 (2010) 629 (2006) 6680 1380 2560 2690 4180 5510 15300 20700
2019-10-10 01:30 9.51 16400 22200 (2010) 629 (2006) 6680 1380 2560 2690 4180 5510 15300 20700
2019-10-10 00:30 9.51 16400 22200 (2010) 629 (2006) 6680 1380 2560 2690 4180 5510 15300 20700
2019-10-09 23:30 9.52 16500 18900 (2016) 562 (2006) 6270 1020 2130 2180 4250 5560 14200 17900
2019-10-09 22:30 9.54 16500 18900 (2016) 562 (2006) 6270 1020 2130 2180 4250 5560 14200 17900
2019-10-09 21:30 9.55 16600 18900 (2016) 562 (2006) 6270 1020 2130 2180 4250 5560 14200 17900
2019-10-09 20:30 9.56 16600 18900 (2016) 562 (2006) 6270 1020 2130 2180 4250 5560 14200 17900
2019-10-09 19:30 9.58 16700 18900 (2016) 562 (2006) 6270 1020 2130 2180 4250 5560 14200 17900
2019-10-09 18:30 9.64 16900 18900 (2016) 562 (2006) 6270 1020 2130 2180 4250 5560 14200 17900
2019-10-09 17:30 9.68 17100 18900 (2016) 562 (2006) 6270 1020 2130 2180 4250 5560 14200 17900
2019-10-09 16:30 9.67 17000 18900 (2016) 562 (2006) 6270 1020 2130 2180 4250 5560 14200 17900
2019-10-09 15:30 9.74 17300 18900 (2016) 562 (2006) 6270 1020 2130 2180 4250 5560 14200 17900
2019-10-09 14:30 9.75 17300 18900 (2016) 562 (2006) 6270 1020 2130 2180 4250 5560 14200 17900
2019-10-09 13:30 9.78 17400 18900 (2016) 562 (2006) 6270 1020 2130 2180 4250 5560 14200 17900
2019-10-09 12:30 9.81 17500 18900 (2016) 562 (2006) 6270 1020 2130 2180 4250 5560 14200 17900
2019-10-09 11:30 9.79 17500 18900 (2016) 562 (2006) 6270 1020 2130 2180 4250 5560 14200 17900
2019-10-09 10:30 9.81 17500 18900 (2016) 562 (2006) 6270 1020 2130 2180 4250 5560 14200 17900
2019-10-09 08:30 9.84 17700 18900 (2016) 562 (2006) 6270 1020 2130 2180 4250 5560 14200 17900
2019-10-09 07:30 9.84 17700 18900 (2016) 562 (2006) 6270 1020 2130 2180 4250 5560 14200 17900
2019-10-09 06:30 9.87 17800 18900 (2016) 562 (2006) 6270 1020 2130 2180 4250 5560 14200 17900
2019-10-09 05:30 9.86 17700 18900 (2016) 562 (2006) 6270 1020 2130 2180 4250 5560 14200 17900
2019-10-09 04:30 9.90 17900 18900 (2016) 562 (2006) 6270 1020 2130 2180 4250 5560 14200 17900
2019-10-09 03:30 9.91 17900 18900 (2016) 562 (2006) 6270 1020 2130 2180 4250 5560 14200 17900
2019-10-09 02:30 9.93 18000 18900 (2016) 562 (2006) 6270 1020 2130 2180 4250 5560 14200 17900
2019-10-09 01:30 9.97 18200 18900 (2016) 562 (2006) 6270 1020 2130 2180 4250 5560 14200 17900
2019-10-09 00:30 9.94 18000 18900 (2016) 562 (2006) 6270 1020 2130 2180 4250 5560 14200 17900
2019-10-08 23:30 9.94 18000 18700 (2016) 570 (2006) 6250 1080 2230 2280 4960 6220 10800 17700
2019-10-08 22:30 9.92 18000 18700 (2016) 570 (2006) 6250 1080 2230 2280 4960 6220 10800 17700
2019-10-08 21:30 9.90 17900 18700 (2016) 570 (2006) 6250 1080 2230 2280 4960 6220 10800 17700
2019-10-08 20:30 9.86 17700 18700 (2016) 570 (2006) 6250 1080 2230 2280 4960 6220 10800 17700
2019-10-08 19:30 9.79 17500 18700 (2016) 570 (2006) 6250 1080 2230 2280 4960 6220 10800 17700
2019-10-08 18:30 9.72 17200 18700 (2016) 570 (2006) 6250 1080 2230 2280 4960 6220 10800 17700
2019-10-08 17:30 9.70 17100 18700 (2016) 570 (2006) 6250 1080 2230 2280 4960 6220 10800 17700
2019-10-08 16:30 9.71 17200 18700 (2016) 570 (2006) 6250 1080 2230 2280 4960 6220 10800 17700
2019-10-08 15:30 9.75 17300 18700 (2016) 570 (2006) 6250 1080 2230 2280 4960 6220 10800 17700
2019-10-08 14:30 9.79 17500 18700 (2016) 570 (2006) 6250 1080 2230 2280 4960 6220 10800 17700
2019-10-08 13:30 9.87 17800 18700 (2016) 570 (2006) 6250 1080 2230 2280 4960 6220 10800 17700
2019-10-08 12:30 9.91 17900 18700 (2016) 570 (2006) 6250 1080 2230 2280 4960 6220 10800 17700
2019-10-08 11:30 9.98 18200 18700 (2016) 570 (2006) 6250 1080 2230 2280 4960 6220 10800 17700
2019-10-08 10:30 10.03 18400 18700 (2016) 570 (2006) 6250 1080 2230 2280 4960 6220 10800 17700
2019-10-08 09:30 10.08 18600 18700 (2016) 570 (2006) 6250 1080 2230 2280 4960 6220 10800 17700
2019-10-08 08:30 10.11 18700 18700 (2016) 570 (2006) 6250 1080 2230 2280 4960 6220 10800 17700
2019-10-08 07:30 10.18 19000 18700 (2016) 570 (2006) 6250 1080 2230 2280 4960 6220 10800 17700
2019-10-08 06:30 10.19 19000 18700 (2016) 570 (2006) 6250 1080 2230 2280 4960 6220 10800 17700
2019-10-08 05:30 10.17 18900 18700 (2016) 570 (2006) 6250 1080 2230 2280 4960 6220 10800 17700
2019-10-08 04:30 10.12 18700 18700 (2016) 570 (2006) 6250 1080 2230 2280 4960 6220 10800 17700
2019-10-08 03:30 10.04 18400 18700 (2016) 570 (2006) 6250 1080 2230 2280 4960 6220 10800 17700
2019-10-08 02:30 9.92 18000 18700 (2016) 570 (2006) 6250 1080 2230 2280 4960 6220 10800 17700
2019-10-08 01:30 9.70 17100 18700 (2016) 570 (2006) 6250 1080 2230 2280 4960 6220 10800 17700
2019-10-08 00:30 9.54 16500 18700 (2016) 570 (2006) 6250 1080 2230 2280 4960 6220 10800 17700
2019-10-07 23:30 9.54 16500 17600 (2016) 672 (2006) 6340 1610 2770 3360 4280 6680 10700 17500
2019-10-07 22:30 9.58 16700 17600 (2016) 672 (2006) 6340 1610 2770 3360 4280 6680 10700 17500
2019-10-07 21:30 9.70 17100 17600 (2016) 672 (2006) 6340 1610 2770 3360 4280 6680 10700 17500
2019-10-07 20:30 9.83 17600 17600 (2016) 672 (2006) 6340 1610 2770 3360 4280 6680 10700 17500
2019-10-07 19:30 9.93 18000 17600 (2016) 672 (2006) 6340 1610 2770 3360 4280 6680 10700 17500
2019-10-07 18:30 10.01 18300 17600 (2016) 672 (2006) 6340 1610 2770 3360 4280 6680 10700 17500
2019-10-07 17:30 9.95 18100 17600 (2016) 672 (2006) 6340 1610 2770 3360 4280 6680 10700 17500
2019-10-07 16:30 9.84 17700 17600 (2016) 672 (2006) 6340 1610 2770 3360 4280 6680 10700 17500
2019-10-07 15:30 9.67 17000 17600 (2016) 672 (2006) 6340 1610 2770 3360 4280 6680 10700 17500
2019-10-07 14:30 9.46 16200 17600 (2016) 672 (2006) 6340 1610 2770 3360 4280 6680 10700 17500
2019-10-07 13:30 9.38 15900 17600 (2016) 672 (2006) 6340 1610 2770 3360 4280 6680 10700 17500
2019-10-07 12:30 9.38 15900 17600 (2016) 672 (2006) 6340 1610 2770 3360 4280 6680 10700 17500
2019-10-07 11:30 9.37 15900 17600 (2016) 672 (2006) 6340 1610 2770 3360 4280 6680 10700 17500
2019-10-07 10:30 9.36 15900 17600 (2016) 672 (2006) 6340 1610 2770 3360 4280 6680 10700 17500
2019-10-07 09:30 9.38 15900 17600 (2016) 672 (2006) 6340 1610 2770 3360 4280 6680 10700 17500
2019-10-07 08:30 9.39 16000 17600 (2016) 672 (2006) 6340 1610 2770 3360 4280 6680 10700 17500
2019-10-07 07:30 9.39 16000 17600 (2016) 672 (2006) 6340 1610 2770 3360 4280 6680 10700 17500
2019-10-07 06:30 9.40 16000 17600 (2016) 672 (2006) 6340 1610 2770 3360 4280 6680 10700 17500
2019-10-07 05:30 9.42 16100 17600 (2016) 672 (2006) 6340 1610 2770 3360 4280 6680 10700 17500
2019-10-07 04:30 9.44 16200 17600 (2016) 672 (2006) 6340 1610 2770 3360 4280 6680 10700 17500
2019-10-07 03:30 9.45 16200 17600 (2016) 672 (2006) 6340 1610 2770 3360 4280 6680 10700 17500
2019-10-07 02:30 9.45 16200 17600 (2016) 672 (2006) 6340 1610 2770 3360 4280 6680 10700 17500
2019-10-07 01:30 9.45 16200 17600 (2016) 672 (2006) 6340 1610 2770 3360 4280 6680 10700 17500
2019-10-07 00:30 9.44 16200 17600 (2016) 672 (2006) 6340 1610 2770 3360 4280 6680 10700 17500
2019-10-06 23:30 9.45 16200 18700 (2016) 1720 (2004) 6340 1870 2060 2080 3690 10800 10800 17400
2019-10-06 22:30 9.42 16100 18700 (2016) 1720 (2004) 6340 1870 2060 2080 3690 10800 10800 17400
2019-10-06 21:30 9.39 16000 18700 (2016) 1720 (2004) 6340 1870 2060 2080 3690 10800 10800 17400
2019-10-06 20:30 9.40 16000 18700 (2016) 1720 (2004) 6340 1870 2060 2080 3690 10800 10800 17400
2019-10-06 19:30 9.40 16000 18700 (2016) 1720 (2004) 6340 1870 2060 2080 3690 10800 10800 17400
2019-10-06 18:30 9.41 16000 18700 (2016) 1720 (2004) 6340 1870 2060 2080 3690 10800 10800 17400
2019-10-06 17:30 9.32 15700 18700 (2016) 1720 (2004) 6340 1870 2060 2080 3690 10800 10800 17400
2019-10-06 16:30 9.32 15700 18700 (2016) 1720 (2004) 6340 1870 2060 2080 3690 10800 10800 17400
2019-10-06 15:30 9.30 15600 18700 (2016) 1720 (2004) 6340 1870 2060 2080 3690 10800 10800 17400
2019-10-06 14:30 9.28 15600 18700 (2016) 1720 (2004) 6340 1870 2060 2080 3690 10800 10800 17400
2019-10-06 13:30 9.28 15600 18700 (2016) 1720 (2004) 6340 1870 2060 2080 3690 10800 10800 17400
2019-10-06 12:30 9.29 15600 18700 (2016) 1720 (2004) 6340 1870 2060 2080 3690 10800 10800 17400
2019-10-06 11:30 9.26 15500 18700 (2016) 1720 (2004) 6340 1870 2060 2080 3690 10800 10800 17400
2019-10-06 10:30 9.27 15500 18700 (2016) 1720 (2004) 6340 1870 2060 2080 3690 10800 10800 17400
2019-10-06 09:30 9.28 15600 18700 (2016) 1720 (2004) 6340 1870 2060 2080 3690 10800 10800 17400
2019-10-06 08:30 9.27 15500 18700 (2016) 1720 (2004) 6340 1870 2060 2080 3690 10800 10800 17400
2019-10-06 07:30 9.28 15600 18700 (2016) 1720 (2004) 6340 1870 2060 2080 3690 10800 10800 17400
2019-10-06 06:30 9.30 15600 18700 (2016) 1720 (2004) 6340 1870 2060 2080 3690 10800 10800 17400
2019-10-06 05:30 9.26 15500 18700 (2016) 1720 (2004) 6340 1870 2060 2080 3690 10800 10800 17400
2019-10-06 04:30 9.26 15500 18700 (2016) 1720 (2004) 6340 1870 2060 2080 3690 10800 10800 17400
2019-10-06 03:30 9.26 15500 18700 (2016) 1720 (2004) 6340 1870 2060 2080 3690 10800 10800 17400
2019-10-06 02:30 9.26 15500 18700 (2016) 1720 (2004) 6340 1870 2060 2080 3690 10800 10800 17400
2019-10-06 01:30 9.24 15400 18700 (2016) 1720 (2004) 6340 1870 2060 2080 3690 10800 10800 17400
2019-10-06 00:30 9.26 15500 18700 (2016) 1720 (2004) 6340 1870 2060 2080 3690 10800 10800 17400

A total of 187 rows are displayed for years 2004 through 2018.

Trips for White River (Arkansas), Norfork (07057370)

DateStartEndDistanceConditionDischargeHeightFishingDetails
Click for details2015-11-11 Buffalo River (B) Shipps Ferry Total trip distance: 28.9 miles5.6 Good 5180 5.43 Poor NoneNone Fillmore, Brian
Miller, Russ
Fillmore, Brian; Miller, Russ
No notes for this trip<i>No notes for this trip</i> USGS Gauge Data:
Norfork (07057370)
Discharge: 5180
Height: 5.43
<b>USGS Gauge Data:</b></br />Norfork (07057370)<br />Discharge: 5180<br />Height: 5.43
Source: FillmoreSource: Fillmore
Click for details2016-08-28 Buffalo River Shipps Ferry Total trip distance: 28.9 miles5.6 Good 3640 5.25 Poor LSFLSF Fillmore, Brian
Fillmore, Rebecca
Fillmore, Wylee
Javorsek, Rachel
Fillmore, Brian; Fillmore, Rebecca; Fillmore, Wylee; Javorsek, Rachel
No notes for this trip<i>No notes for this trip</i> USGS Gauge Data:
Norfork (07057370)
Discharge: 3640
Height: 5.25
<b>USGS Gauge Data:</b></br />Norfork (07057370)<br />Discharge: 3640<br />Height: 5.25
Source: FillmoreSource: Fillmore

A total of 2 rows are displayed.

Trip Summary for White River (Arkansas), Norfork (07057370)

Miles11.2
Trips2
People5
Dates2
Years2
Months2
Rows2
Sources1

Condition Descriptions

Fishing Conditions

Fish Species

Notes

Classic Trip List

The classic River Trips application is still available for use. It is updated with the new system using a data retrofit. It is no longer maintained. The original River Trips application is no longer updated (as of 1 Dec 2016) but can be checked for errors or for the condition of the data before it was converted to the new system.